sensor_id;sensor_type;location;lat;lon;timestamp;P1;durP1;ratioP1;P2;durP2;ratioP2
14235;SDS011;7202;50.718;7.072;2023-03-14T00:02:22;2.97;;;1.20;;
14235;SDS011;7202;50.718;7.072;2023-03-14T00:04:54;3.20;;;1.05;;
14235;SDS011;7202;50.718;7.072;2023-03-14T00:07:23;3.78;;;1.70;;
14235;SDS011;7202;50.718;7.072;2023-03-14T00:09:52;3.95;;;1.45;;
14235;SDS011;7202;50.718;7.072;2023-03-14T00:12:20;7.00;;;1.40;;
14235;SDS011;7202;50.718;7.072;2023-03-14T00:14:49;4.03;;;1.13;;
14235;SDS011;7202;50.718;7.072;2023-03-14T00:17:18;3.03;;;1.17;;
14235;SDS011;7202;50.718;7.072;2023-03-14T00:19:47;5.28;;;1.50;;
14235;SDS011;7202;50.718;7.072;2023-03-14T00:22:20;3.13;;;1.23;;
14235;SDS011;7202;50.718;7.072;2023-03-14T00:24:50;5.30;;;1.45;;
14235;SDS011;7202;50.718;7.072;2023-03-14T00:27:18;6.15;;;1.20;;
14235;SDS011;7202;50.718;7.072;2023-03-14T00:29:47;3.17;;;1.05;;
14235;SDS011;7202;50.718;7.072;2023-03-14T00:32:15;4.82;;;1.23;;
14235;SDS011;7202;50.718;7.072;2023-03-14T00:34:44;4.93;;;1.42;;
14235;SDS011;7202;50.718;7.072;2023-03-14T00:37:12;4.10;;;0.98;;
14235;SDS011;7202;50.718;7.072;2023-03-14T00:39:42;4.10;;;1.13;;
14235;SDS011;7202;50.718;7.072;2023-03-14T00:42:11;4.03;;;1.10;;
14235;SDS011;7202;50.718;7.072;2023-03-14T00:44:39;4.88;;;1.38;;
14235;SDS011;7202;50.718;7.072;2023-03-14T00:47:08;3.60;;;1.30;;
14235;SDS011;7202;50.718;7.072;2023-03-14T00:49:37;2.58;;;1.00;;
14235;SDS011;7202;50.718;7.072;2023-03-14T00:52:05;3.55;;;1.60;;
14235;SDS011;7202;50.718;7.072;2023-03-14T00:54:34;6.03;;;1.35;;
14235;SDS011;7202;50.718;7.072;2023-03-14T00:57:04;5.30;;;1.33;;
14235;SDS011;7202;50.718;7.072;2023-03-14T00:59:32;5.38;;;1.20;;
14235;SDS011;7202;50.718;7.072;2023-03-14T01:02:01;7.43;;;1.77;;
14235;SDS011;7202;50.718;7.072;2023-03-14T01:04:29;5.03;;;1.08;;
14235;SDS011;7202;50.718;7.072;2023-03-14T01:06:58;5.55;;;1.30;;
14235;SDS011;7202;50.718;7.072;2023-03-14T01:09:27;8.27;;;1.35;;
14235;SDS011;7202;50.718;7.072;2023-03-14T01:11:55;5.22;;;1.65;;
14235;SDS011;7202;50.718;7.072;2023-03-14T01:14:25;4.78;;;1.20;;
14235;SDS011;7202;50.718;7.072;2023-03-14T01:16:54;4.40;;;1.50;;
14235;SDS011;7202;50.718;7.072;2023-03-14T01:19:27;4.03;;;1.50;;
14235;SDS011;7202;50.718;7.072;2023-03-14T01:21:56;4.97;;;1.65;;
14235;SDS011;7202;50.718;7.072;2023-03-14T01:24:24;2.90;;;1.10;;
14235;SDS011;7202;50.718;7.072;2023-03-14T01:26:53;4.97;;;1.15;;
14235;SDS011;7202;50.718;7.072;2023-03-14T01:29:25;4.35;;;1.40;;
14235;SDS011;7202;50.718;7.072;2023-03-14T01:31:54;4.00;;;1.27;;
14235;SDS011;7202;50.718;7.072;2023-03-14T01:34:23;5.28;;;1.33;;
14235;SDS011;7202;50.718;7.072;2023-03-14T01:36:51;5.35;;;1.42;;
14235;SDS011;7202;50.718;7.072;2023-03-14T01:39:20;3.40;;;1.20;;
14235;SDS011;7202;50.718;7.072;2023-03-14T01:41:48;3.63;;;1.20;;
14235;SDS011;7202;50.718;7.072;2023-03-14T01:44:17;3.67;;;1.40;;
14235;SDS011;7202;50.718;7.072;2023-03-14T01:46:47;3.78;;;1.52;;
14235;SDS011;7202;50.718;7.072;2023-03-14T01:49:21;6.85;;;1.30;;
14235;SDS011;7202;50.718;7.072;2023-03-14T01:52:02;3.38;;;1.20;;
14235;SDS011;7202;50.718;7.072;2023-03-14T01:54:34;5.07;;;1.40;;
14235;SDS011;7202;50.718;7.072;2023-03-14T01:57:06;3.92;;;1.15;;
14235;SDS011;7202;50.718;7.072;2023-03-14T01:59:39;6.88;;;1.45;;
14235;SDS011;7202;50.718;7.072;2023-03-14T02:02:12;2.60;;;1.05;;
14235;SDS011;7202;50.718;7.072;2023-03-14T02:04:41;5.80;;;1.80;;
14235;SDS011;7202;50.718;7.072;2023-03-14T02:07:15;3.40;;;1.00;;
14235;SDS011;7202;50.718;7.072;2023-03-14T02:10:08;5.47;;;0.82;;
14235;SDS011;7202;50.718;7.072;2023-03-14T02:12:38;4.53;;;1.20;;
14235;SDS011;7202;50.718;7.072;2023-03-14T02:15:26;4.72;;;1.63;;
14235;SDS011;7202;50.718;7.072;2023-03-14T02:18:03;4.75;;;1.30;;
14235;SDS011;7202;50.718;7.072;2023-03-14T02:20:49;2.75;;;1.02;;
14235;SDS011;7202;50.718;7.072;2023-03-14T02:23:27;3.40;;;1.40;;
14235;SDS011;7202;50.718;7.072;2023-03-14T02:26:05;3.53;;;1.38;;
14235;SDS011;7202;50.718;7.072;2023-03-14T02:28:40;3.65;;;1.02;;
14235;SDS011;7202;50.718;7.072;2023-03-14T02:31:08;3.03;;;1.17;;
14235;SDS011;7202;50.718;7.072;2023-03-14T02:33:37;3.97;;;1.17;;
14235;SDS011;7202;50.718;7.072;2023-03-14T02:36:07;2.97;;;1.20;;
14235;SDS011;7202;50.718;7.072;2023-03-14T02:38:41;4.20;;;1.25;;
14235;SDS011;7202;50.718;7.072;2023-03-14T02:41:15;3.10;;;1.23;;
14235;SDS011;7202;50.718;7.072;2023-03-14T02:43:52;4.30;;;1.20;;
14235;SDS011;7202;50.718;7.072;2023-03-14T02:46:20;3.92;;;1.27;;
14235;SDS011;7202;50.718;7.072;2023-03-14T02:48:51;5.20;;;1.40;;
14235;SDS011;7202;50.718;7.072;2023-03-14T02:51:21;6.03;;;1.38;;
14235;SDS011;7202;50.718;7.072;2023-03-14T02:53:51;6.13;;;1.50;;
14235;SDS011;7202;50.718;7.072;2023-03-14T02:56:22;9.55;;;1.50;;
14235;SDS011;7202;50.718;7.072;2023-03-14T02:58:52;6.53;;;1.45;;
14235;SDS011;7202;50.718;7.072;2023-03-14T03:01:43;6.13;;;1.40;;
14235;SDS011;7202;50.718;7.072;2023-03-14T03:04:12;5.28;;;1.42;;
14235;SDS011;7202;50.718;7.072;2023-03-14T03:06:40;4.57;;;1.50;;
14235;SDS011;7202;50.718;7.072;2023-03-14T03:09:09;6.82;;;1.35;;
14235;SDS011;7202;50.718;7.072;2023-03-14T03:11:38;6.10;;;1.58;;
14235;SDS011;7202;50.718;7.072;2023-03-14T03:14:10;6.32;;;1.33;;
14235;SDS011;7202;50.718;7.072;2023-03-14T03:16:38;4.95;;;1.33;;
14235;SDS011;7202;50.718;7.072;2023-03-14T03:19:07;7.45;;;1.60;;
14235;SDS011;7202;50.718;7.072;2023-03-14T03:21:36;7.80;;;1.58;;
14235;SDS011;7202;50.718;7.072;2023-03-14T03:24:04;10.57;;;2.15;;
14235;SDS011;7202;50.718;7.072;2023-03-14T03:26:33;7.95;;;1.58;;
14235;SDS011;7202;50.718;7.072;2023-03-14T03:29:06;4.65;;;1.60;;
14235;SDS011;7202;50.718;7.072;2023-03-14T03:31:37;2.80;;;1.13;;
14235;SDS011;7202;50.718;7.072;2023-03-14T03:34:06;5.68;;;1.40;;
14235;SDS011;7202;50.718;7.072;2023-03-14T03:36:35;6.10;;;1.38;;
14235;SDS011;7202;50.718;7.072;2023-03-14T03:39:04;4.97;;;1.33;;
14235;SDS011;7202;50.718;7.072;2023-03-14T03:41:33;4.63;;;1.60;;
14235;SDS011;7202;50.718;7.072;2023-03-14T03:44:01;3.15;;;1.35;;
14235;SDS011;7202;50.718;7.072;2023-03-14T03:46:30;5.50;;;1.40;;
14235;SDS011;7202;50.718;7.072;2023-03-14T03:49:00;4.95;;;1.25;;
14235;SDS011;7202;50.718;7.072;2023-03-14T03:51:29;5.28;;;1.30;;
14235;SDS011;7202;50.718;7.072;2023-03-14T03:53:58;4.65;;;1.33;;
14235;SDS011;7202;50.718;7.072;2023-03-14T03:56:30;4.85;;;1.00;;
14235;SDS011;7202;50.718;7.072;2023-03-14T03:58:59;5.13;;;1.40;;
14235;SDS011;7202;50.718;7.072;2023-03-14T04:01:28;3.78;;;1.02;;
14235;SDS011;7202;50.718;7.072;2023-03-14T04:03:59;4.20;;;0.90;;
14235;SDS011;7202;50.718;7.072;2023-03-14T04:06:29;5.57;;;1.30;;
14235;SDS011;7202;50.718;7.072;2023-03-14T04:08:59;4.10;;;1.20;;
14235;SDS011;7202;50.718;7.072;2023-03-14T04:11:57;5.43;;;1.02;;
14235;SDS011;7202;50.718;7.072;2023-03-14T04:14:35;4.63;;;1.17;;
14235;SDS011;7202;50.718;7.072;2023-03-14T04:17:24;3.53;;;1.08;;
14235;SDS011;7202;50.718;7.072;2023-03-14T04:19:54;3.42;;;1.08;;
14235;SDS011;7202;50.718;7.072;2023-03-14T04:22:31;6.00;;;1.48;;
14235;SDS011;7202;50.718;7.072;2023-03-14T04:25:00;4.63;;;1.15;;
14235;SDS011;7202;50.718;7.072;2023-03-14T04:27:34;2.67;;;1.05;;
14235;SDS011;7202;50.718;7.072;2023-03-14T04:30:06;1.73;;;0.75;;
14235;SDS011;7202;50.718;7.072;2023-03-14T04:32:50;3.55;;;1.17;;
14235;SDS011;7202;50.718;7.072;2023-03-14T04:35:23;4.43;;;1.20;;
14235;SDS011;7202;50.718;7.072;2023-03-14T04:37:59;3.00;;;1.00;;
14235;SDS011;7202;50.718;7.072;2023-03-14T04:40:30;1.60;;;0.90;;
14235;SDS011;7202;50.718;7.072;2023-03-14T04:43:03;3.00;;;0.80;;
14235;SDS011;7202;50.718;7.072;2023-03-14T04:45:33;2.60;;;1.13;;
14235;SDS011;7202;50.718;7.072;2023-03-14T04:48:05;2.50;;;1.00;;
14235;SDS011;7202;50.718;7.072;2023-03-14T04:50:35;2.75;;;1.30;;
14235;SDS011;7202;50.718;7.072;2023-03-14T04:53:03;3.42;;;0.88;;
14235;SDS011;7202;50.718;7.072;2023-03-14T04:55:33;6.28;;;0.95;;
14235;SDS011;7202;50.718;7.072;2023-03-14T04:58:02;2.15;;;0.77;;
14235;SDS011;7202;50.718;7.072;2023-03-14T05:00:31;2.88;;;0.77;;
14235;SDS011;7202;50.718;7.072;2023-03-14T05:03:22;1.60;;;0.60;;
14235;SDS011;7202;50.718;7.072;2023-03-14T05:06:07;0.60;;;0.40;;
14235;SDS011;7202;50.718;7.072;2023-03-14T05:09:03;2.15;;;0.60;;
14235;SDS011;7202;50.718;7.072;2023-03-14T05:11:50;4.75;;;1.08;;
14235;SDS011;7202;50.718;7.072;2023-03-14T05:14:38;3.83;;;0.70;;
14235;SDS011;7202;50.718;7.072;2023-03-14T05:17:24;0.85;;;0.55;;
14235;SDS011;7202;50.718;7.072;2023-03-14T05:20:11;0.95;;;0.50;;
14235;SDS011;7202;50.718;7.072;2023-03-14T05:23:01;2.20;;;0.50;;
14235;SDS011;7202;50.718;7.072;2023-03-14T05:25:46;3.70;;;0.70;;
14235;SDS011;7202;50.718;7.072;2023-03-14T05:28:34;2.72;;;0.50;;
14235;SDS011;7202;50.718;7.072;2023-03-14T05:31:09;1.52;;;0.60;;
14235;SDS011;7202;50.718;7.072;2023-03-14T05:33:50;1.05;;;0.40;;
14235;SDS011;7202;50.718;7.072;2023-03-14T05:36:33;0.85;;;0.50;;
14235;SDS011;7202;50.718;7.072;2023-03-14T05:39:21;2.05;;;0.70;;
14235;SDS011;7202;50.718;7.072;2023-03-14T05:42:10;1.45;;;0.73;;
14235;SDS011;7202;50.718;7.072;2023-03-14T05:45:11;0.95;;;0.50;;
14235;SDS011;7202;50.718;7.072;2023-03-14T05:48:04;3.50;;;0.85;;
14235;SDS011;7202;50.718;7.072;2023-03-14T05:50:42;1.58;;;0.65;;
14235;SDS011;7202;50.718;7.072;2023-03-14T05:53:27;3.08;;;0.63;;
14235;SDS011;7202;50.718;7.072;2023-03-14T05:56:36;1.05;;;0.30;;
14235;SDS011;7202;50.718;7.072;2023-03-14T05:59:34;1.40;;;0.52;;
14235;SDS011;7202;50.718;7.072;2023-03-14T06:02:23;0.50;;;0.30;;
14235;SDS011;7202;50.718;7.072;2023-03-14T06:05:01;0.95;;;0.50;;
14235;SDS011;7202;50.718;7.072;2023-03-14T06:07:30;2.28;;;0.40;;
14235;SDS011;7202;50.718;7.072;2023-03-14T06:09:59;0.80;;;0.55;;
14235;SDS011;7202;50.718;7.072;2023-03-14T06:12:29;1.88;;;0.38;;
14235;SDS011;7202;50.718;7.072;2023-03-14T06:14:57;1.67;;;0.38;;
14235;SDS011;7202;50.718;7.072;2023-03-14T06:17:27;1.13;;;0.20;;
14235;SDS011;7202;50.718;7.072;2023-03-14T06:20:02;1.65;;;0.80;;
14235;SDS011;7202;50.718;7.072;2023-03-14T06:22:31;0.95;;;0.40;;
14235;SDS011;7202;50.718;7.072;2023-03-14T06:25:00;0.73;;;0.47;;
14235;SDS011;7202;50.718;7.072;2023-03-14T06:27:32;0.68;;;0.35;;
14235;SDS011;7202;50.718;7.072;2023-03-14T06:30:00;2.00;;;0.40;;
14235;SDS011;7202;50.718;7.072;2023-03-14T06:32:31;0.50;;;0.30;;
14235;SDS011;7202;50.718;7.072;2023-03-14T06:35:05;0.90;;;0.30;;
14235;SDS011;7202;50.718;7.072;2023-03-14T06:37:37;0.35;;;0.35;;
14235;SDS011;7202;50.718;7.072;2023-03-14T06:40:06;0.43;;;0.30;;
14235;SDS011;7202;50.718;7.072;2023-03-14T06:42:50;0.38;;;0.20;;
14235;SDS011;7202;50.718;7.072;2023-03-14T06:45:21;1.20;;;0.22;;
14235;SDS011;7202;50.718;7.072;2023-03-14T06:47:51;0.20;;;0.20;;
14235;SDS011;7202;50.718;7.072;2023-03-14T06:50:24;2.08;;;0.35;;
14235;SDS011;7202;50.718;7.072;2023-03-14T06:52:53;0.57;;;0.32;;
14235;SDS011;7202;50.718;7.072;2023-03-14T06:55:24;1.05;;;0.40;;
14235;SDS011;7202;50.718;7.072;2023-03-14T06:57:55;0.30;;;0.20;;
14235;SDS011;7202;50.718;7.072;2023-03-14T07:00:24;0.70;;;0.30;;
14235;SDS011;7202;50.718;7.072;2023-03-14T07:02:55;0.40;;;0.40;;
14235;SDS011;7202;50.718;7.072;2023-03-14T07:05:28;0.77;;;0.30;;
14235;SDS011;7202;50.718;7.072;2023-03-14T07:07:57;0.70;;;0.30;;
14235;SDS011;7202;50.718;7.072;2023-03-14T07:10:25;0.32;;;0.20;;
14235;SDS011;7202;50.718;7.072;2023-03-14T07:12:55;0.30;;;0.20;;
14235;SDS011;7202;50.718;7.072;2023-03-14T07:15:26;0.20;;;0.20;;
14235;SDS011;7202;50.718;7.072;2023-03-14T07:17:59;0.30;;;0.28;;
14235;SDS011;7202;50.718;7.072;2023-03-14T07:20:28;0.80;;;0.30;;
14235;SDS011;7202;50.718;7.072;2023-03-14T07:23:00;0.22;;;0.20;;
14235;SDS011;7202;50.718;7.072;2023-03-14T07:25:50;1.55;;;0.28;;
14235;SDS011;7202;50.718;7.072;2023-03-14T07:28:24;0.80;;;0.60;;
14235;SDS011;7202;50.718;7.072;2023-03-14T07:31:07;0.88;;;0.20;;
14235;SDS011;7202;50.718;7.072;2023-03-14T07:33:37;0.20;;;0.10;;
14235;SDS011;7202;50.718;7.072;2023-03-14T07:36:07;0.30;;;0.30;;
14235;SDS011;7202;50.718;7.072;2023-03-14T07:38:37;0.20;;;0.20;;
14235;SDS011;7202;50.718;7.072;2023-03-14T07:41:17;0.82;;;0.40;;
14235;SDS011;7202;50.718;7.072;2023-03-14T07:44:27;0.40;;;0.30;;
14235;SDS011;7202;50.718;7.072;2023-03-14T07:46:56;0.63;;;0.40;;
14235;SDS011;7202;50.718;7.072;2023-03-14T07:49:24;0.80;;;0.32;;
14235;SDS011;7202;50.718;7.072;2023-03-14T07:51:53;0.25;;;0.17;;
14235;SDS011;7202;50.718;7.072;2023-03-14T07:54:22;0.38;;;0.30;;
14235;SDS011;7202;50.718;7.072;2023-03-14T07:56:51;0.30;;;0.20;;
14235;SDS011;7202;50.718;7.072;2023-03-14T07:59:20;0.28;;;0.20;;
14235;SDS011;7202;50.718;7.072;2023-03-14T08:01:50;1.55;;;0.22;;
14235;SDS011;7202;50.718;7.072;2023-03-14T08:04:19;0.20;;;0.20;;
14235;SDS011;7202;50.718;7.072;2023-03-14T08:06:47;0.52;;;0.20;;
14235;SDS011;7202;50.718;7.072;2023-03-14T08:09:16;0.65;;;0.20;;
14235;SDS011;7202;50.718;7.072;2023-03-14T08:11:44;0.98;;;0.20;;
14235;SDS011;7202;50.718;7.072;2023-03-14T08:14:13;0.90;;;0.20;;
14235;SDS011;7202;50.718;7.072;2023-03-14T08:16:42;0.20;;;0.20;;
14235;SDS011;7202;50.718;7.072;2023-03-14T08:19:12;0.77;;;0.22;;
14235;SDS011;7202;50.718;7.072;2023-03-14T08:21:40;0.20;;;0.20;;
14235;SDS011;7202;50.718;7.072;2023-03-14T08:24:09;0.22;;;0.20;;
14235;SDS011;7202;50.718;7.072;2023-03-14T08:26:38;0.88;;;0.20;;
14235;SDS011;7202;50.718;7.072;2023-03-14T08:29:07;0.17;;;0.17;;
14235;SDS011;7202;50.718;7.072;2023-03-14T08:31:36;0.20;;;0.20;;
14235;SDS011;7202;50.718;7.072;2023-03-14T08:34:05;0.30;;;0.10;;
14235;SDS011;7202;50.718;7.072;2023-03-14T08:36:35;0.20;;;0.20;;
14235;SDS011;7202;50.718;7.072;2023-03-14T08:39:04;1.00;;;0.20;;
14235;SDS011;7202;50.718;7.072;2023-03-14T08:41:35;0.10;;;0.10;;
14235;SDS011;7202;50.718;7.072;2023-03-14T08:44:07;0.45;;;0.20;;
14235;SDS011;7202;50.718;7.072;2023-03-14T08:46:36;0.22;;;0.15;;
14235;SDS011;7202;50.718;7.072;2023-03-14T08:49:05;0.10;;;0.10;;
14235;SDS011;7202;50.718;7.072;2023-03-14T08:51:35;0.57;;;0.22;;
14235;SDS011;7202;50.718;7.072;2023-03-14T08:54:04;0.80;;;0.30;;
14235;SDS011;7202;50.718;7.072;2023-03-14T08:56:33;0.20;;;0.17;;
14235;SDS011;7202;50.718;7.072;2023-03-14T08:59:01;0.20;;;0.20;;
14235;SDS011;7202;50.718;7.072;2023-03-14T09:01:30;0.30;;;0.30;;
14235;SDS011;7202;50.718;7.072;2023-03-14T09:03:59;0.80;;;0.45;;
14235;SDS011;7202;50.718;7.072;2023-03-14T09:06:28;1.27;;;0.20;;
14235;SDS011;7202;50.718;7.072;2023-03-14T09:08:58;0.40;;;0.22;;
14235;SDS011;7202;50.718;7.072;2023-03-14T09:11:26;0.52;;;0.20;;
14235;SDS011;7202;50.718;7.072;2023-03-14T09:13:55;0.28;;;0.20;;
14235;SDS011;7202;50.718;7.072;2023-03-14T09:16:23;0.40;;;0.30;;
14235;SDS011;7202;50.718;7.072;2023-03-14T09:18:52;0.73;;;0.20;;
14235;SDS011;7202;50.718;7.072;2023-03-14T09:21:21;0.10;;;0.10;;
14235;SDS011;7202;50.718;7.072;2023-03-14T09:23:49;0.30;;;0.30;;
14235;SDS011;7202;50.718;7.072;2023-03-14T09:26:19;0.20;;;0.20;;
14235;SDS011;7202;50.718;7.072;2023-03-14T09:28:48;0.10;;;0.10;;
14235;SDS011;7202;50.718;7.072;2023-03-14T09:31:17;1.17;;;0.30;;
14235;SDS011;7202;50.718;7.072;2023-03-14T09:33:46;1.05;;;0.40;;
14235;SDS011;7202;50.718;7.072;2023-03-14T09:36:14;0.95;;;0.45;;
14235;SDS011;7202;50.718;7.072;2023-03-14T09:38:43;1.02;;;0.40;;
14235;SDS011;7202;50.718;7.072;2023-03-14T09:41:13;1.08;;;0.30;;
14235;SDS011;7202;50.718;7.072;2023-03-14T09:43:45;2.90;;;0.63;;
14235;SDS011;7202;50.718;7.072;2023-03-14T09:46:17;1.17;;;0.47;;
14235;SDS011;7202;50.718;7.072;2023-03-14T09:48:46;0.28;;;0.28;;
14235;SDS011;7202;50.718;7.072;2023-03-14T09:51:16;4.50;;;0.82;;
14235;SDS011;7202;50.718;7.072;2023-03-14T09:53:48;1.65;;;0.40;;
14235;SDS011;7202;50.718;7.072;2023-03-14T09:56:18;0.75;;;0.40;;
14235;SDS011;7202;50.718;7.072;2023-03-14T09:58:51;0.65;;;0.50;;
14235;SDS011;7202;50.718;7.072;2023-03-14T10:01:24;2.05;;;0.90;;
14235;SDS011;7202;50.718;7.072;2023-03-14T10:03:59;1.13;;;0.80;;
14235;SDS011;7202;50.718;7.072;2023-03-14T10:06:30;2.75;;;0.77;;
14235;SDS011;7202;50.718;7.072;2023-03-14T10:08:59;1.08;;;0.60;;
14235;SDS011;7202;50.718;7.072;2023-03-14T10:11:30;1.88;;;1.00;;
14235;SDS011;7202;50.718;7.072;2023-03-14T10:14:04;1.40;;;1.17;;
14235;SDS011;7202;50.718;7.072;2023-03-14T10:16:35;1.40;;;0.80;;
14235;SDS011;7202;50.718;7.072;2023-03-14T10:19:05;1.20;;;1.00;;
14235;SDS011;7202;50.718;7.072;2023-03-14T10:21:38;0.77;;;0.65;;
14235;SDS011;7202;50.718;7.072;2023-03-14T10:24:09;0.60;;;0.60;;
14235;SDS011;7202;50.718;7.072;2023-03-14T10:26:45;1.92;;;0.82;;
14235;SDS011;7202;50.718;7.072;2023-03-14T10:29:17;2.20;;;1.42;;
14235;SDS011;7202;50.718;7.072;2023-03-14T10:31:47;1.15;;;0.70;;
14235;SDS011;7202;50.718;7.072;2023-03-14T10:34:22;0.90;;;0.65;;
14235;SDS011;7202;50.718;7.072;2023-03-14T10:36:53;1.30;;;0.60;;
14235;SDS011;7202;50.718;7.072;2023-03-14T10:39:30;0.68;;;0.50;;
14235;SDS011;7202;50.718;7.072;2023-03-14T10:42:10;0.50;;;0.50;;
14235;SDS011;7202;50.718;7.072;2023-03-14T10:44:48;1.17;;;0.60;;
14235;SDS011;7202;50.718;7.072;2023-03-14T10:47:22;1.17;;;0.70;;
14235;SDS011;7202;50.718;7.072;2023-03-14T10:49:53;1.08;;;0.57;;
14235;SDS011;7202;50.718;7.072;2023-03-14T10:52:23;0.40;;;0.40;;
14235;SDS011;7202;50.718;7.072;2023-03-14T10:55:09;1.15;;;0.60;;
14235;SDS011;7202;50.718;7.072;2023-03-14T10:57:40;1.52;;;0.75;;
14235;SDS011;7202;50.718;7.072;2023-03-14T11:00:12;2.45;;;1.20;;
14235;SDS011;7202;50.718;7.072;2023-03-14T11:02:47;1.27;;;1.00;;
14235;SDS011;7202;50.718;7.072;2023-03-14T11:05:25;2.35;;;0.70;;
14235;SDS011;7202;50.718;7.072;2023-03-14T11:08:01;1.13;;;0.80;;
14235;SDS011;7202;50.718;7.072;2023-03-14T11:10:35;1.20;;;0.80;;
14235;SDS011;7202;50.718;7.072;2023-03-14T11:13:11;0.93;;;0.88;;
14235;SDS011;7202;50.718;7.072;2023-03-14T11:15:48;1.85;;;0.80;;
14235;SDS011;7202;50.718;7.072;2023-03-14T11:18:46;2.35;;;1.08;;
14235;SDS011;7202;50.718;7.072;2023-03-14T11:21:24;2.00;;;0.82;;
14235;SDS011;7202;50.718;7.072;2023-03-14T11:24:01;1.00;;;0.90;;
14235;SDS011;7202;50.718;7.072;2023-03-14T11:26:40;1.23;;;0.77;;
14235;SDS011;7202;50.718;7.072;2023-03-14T11:29:18;1.88;;;1.10;;
14235;SDS011;7202;50.718;7.072;2023-03-14T11:31:51;1.50;;;1.10;;
14235;SDS011;7202;50.718;7.072;2023-03-14T11:34:27;1.10;;;1.00;;
14235;SDS011;7202;50.718;7.072;2023-03-14T11:36:58;4.30;;;1.30;;
14235;SDS011;7202;50.718;7.072;2023-03-14T11:39:33;1.60;;;1.25;;
14235;SDS011;7202;50.718;7.072;2023-03-14T11:42:07;1.67;;;1.13;;
14235;SDS011;7202;50.718;7.072;2023-03-14T11:44:39;1.70;;;1.00;;
14235;SDS011;7202;50.718;7.072;2023-03-14T11:47:12;0.80;;;0.80;;
14235;SDS011;7202;50.718;7.072;2023-03-14T11:49:45;0.90;;;0.80;;
14235;SDS011;7202;50.718;7.072;2023-03-14T11:52:19;0.98;;;0.80;;
14235;SDS011;7202;50.718;7.072;2023-03-14T11:54:53;2.03;;;1.30;;
14235;SDS011;7202;50.718;7.072;2023-03-14T11:57:24;1.95;;;1.10;;
14235;SDS011;7202;50.718;7.072;2023-03-14T11:59:55;2.13;;;1.38;;
14235;SDS011;7202;50.718;7.072;2023-03-14T12:02:42;2.38;;;1.40;;
14235;SDS011;7202;50.718;7.072;2023-03-14T12:05:22;1.10;;;1.00;;
14235;SDS011;7202;50.718;7.072;2023-03-14T12:08:22;3.80;;;1.10;;
14235;SDS011;7202;50.718;7.072;2023-03-14T12:11:08;1.40;;;1.15;;
14235;SDS011;7202;50.718;7.072;2023-03-14T12:13:44;2.50;;;1.40;;
14235;SDS011;7202;50.718;7.072;2023-03-14T12:22:08;0.73;;;0.32;;
14235;SDS011;7202;50.718;7.072;2023-03-14T12:25:00;0.65;;;0.40;;
14235;SDS011;7202;50.718;7.072;2023-03-14T12:27:49;0.45;;;0.40;;
14235;SDS011;7202;50.718;7.072;2023-03-14T12:30:32;1.45;;;0.30;;
14235;SDS011;7202;50.718;7.072;2023-03-14T12:36:12;1.42;;;0.30;;
14235;SDS011;7202;50.718;7.072;2023-03-14T12:39:25;0.85;;;0.50;;
14235;SDS011;7202;50.718;7.072;2023-03-14T12:42:04;0.55;;;0.50;;
14235;SDS011;7202;50.718;7.072;2023-03-14T12:44:44;2.45;;;0.50;;
14235;SDS011;7202;50.718;7.072;2023-03-14T12:50:20;0.82;;;0.60;;
14235;SDS011;7202;50.718;7.072;2023-03-14T12:53:08;0.73;;;0.73;;
14235;SDS011;7202;50.718;7.072;2023-03-14T12:56:07;2.15;;;0.90;;
14235;SDS011;7202;50.718;7.072;2023-03-14T12:58:44;1.17;;;1.08;;
14235;SDS011;7202;50.718;7.072;2023-03-14T13:01:18;3.65;;;1.00;;
14235;SDS011;7202;50.718;7.072;2023-03-14T13:03:49;2.20;;;1.10;;
14235;SDS011;7202;50.718;7.072;2023-03-14T13:12:19;4.78;;;1.08;;
14235;SDS011;7202;50.718;7.072;2023-03-14T13:14:54;3.80;;;1.35;;
14235;SDS011;7202;50.718;7.072;2023-03-14T13:17:27;2.65;;;1.23;;
14235;SDS011;7202;50.718;7.072;2023-03-14T13:20:03;2.55;;;1.10;;
14235;SDS011;7202;50.718;7.072;2023-03-14T13:22:39;1.42;;;1.02;;
14235;SDS011;7202;50.718;7.072;2023-03-14T13:25:16;2.08;;;1.13;;
14235;SDS011;7202;50.718;7.072;2023-03-14T13:27:48;1.65;;;1.10;;
14235;SDS011;7202;50.718;7.072;2023-03-14T13:30:23;2.97;;;1.30;;
14235;SDS011;7202;50.718;7.072;2023-03-14T13:32:54;3.33;;;1.15;;
14235;SDS011;7202;50.718;7.072;2023-03-14T13:35:24;2.28;;;1.40;;
14235;SDS011;7202;50.718;7.072;2023-03-14T13:37:55;1.70;;;1.30;;
14235;SDS011;7202;50.718;7.072;2023-03-14T13:40:38;2.67;;;1.30;;
14235;SDS011;7202;50.718;7.072;2023-03-14T13:43:12;1.98;;;1.35;;
14235;SDS011;7202;50.718;7.072;2023-03-14T13:45:45;1.65;;;1.10;;
14235;SDS011;7202;50.718;7.072;2023-03-14T13:48:19;2.33;;;1.10;;
14235;SDS011;7202;50.718;7.072;2023-03-14T13:50:51;2.03;;;1.05;;
14235;SDS011;7202;50.718;7.072;2023-03-14T13:53:22;1.92;;;1.00;;
14235;SDS011;7202;50.718;7.072;2023-03-14T13:55:52;2.15;;;1.35;;
14235;SDS011;7202;50.718;7.072;2023-03-14T13:58:23;3.35;;;1.00;;
14235;SDS011;7202;50.718;7.072;2023-03-14T14:00:58;5.38;;;1.65;;
14235;SDS011;7202;50.718;7.072;2023-03-14T14:03:31;5.88;;;1.45;;
14235;SDS011;7202;50.718;7.072;2023-03-14T14:06:02;2.90;;;1.52;;
14235;SDS011;7202;50.718;7.072;2023-03-14T14:08:31;3.42;;;1.08;;
14235;SDS011;7202;50.718;7.072;2023-03-14T14:11:05;3.78;;;1.30;;
14235;SDS011;7202;50.718;7.072;2023-03-14T14:13:34;2.80;;;1.52;;
14235;SDS011;7202;50.718;7.072;2023-03-14T14:16:03;4.70;;;1.92;;
14235;SDS011;7202;50.718;7.072;2023-03-14T14:18:33;2.40;;;1.50;;
14235;SDS011;7202;50.718;7.072;2023-03-14T14:21:03;3.35;;;1.58;;
14235;SDS011;7202;50.718;7.072;2023-03-14T14:23:33;5.47;;;1.25;;
14235;SDS011;7202;50.718;7.072;2023-03-14T14:26:07;6.00;;;1.05;;
14235;SDS011;7202;50.718;7.072;2023-03-14T14:28:36;9.43;;;1.23;;
14235;SDS011;7202;50.718;7.072;2023-03-14T14:31:06;6.95;;;1.42;;
14235;SDS011;7202;50.718;7.072;2023-03-14T14:33:53;8.48;;;1.45;;
14235;SDS011;7202;50.718;7.072;2023-03-14T14:36:24;5.90;;;1.23;;
14235;SDS011;7202;50.718;7.072;2023-03-14T14:38:59;7.60;;;1.25;;
14235;SDS011;7202;50.718;7.072;2023-03-14T14:41:34;4.43;;;1.30;;
14235;SDS011;7202;50.718;7.072;2023-03-14T14:44:07;7.78;;;1.30;;
14235;SDS011;7202;50.718;7.072;2023-03-14T14:46:40;7.75;;;2.03;;
14235;SDS011;7202;50.718;7.072;2023-03-14T14:49:10;8.02;;;1.88;;
14235;SDS011;7202;50.718;7.072;2023-03-14T14:51:42;11.52;;;1.92;;
14235;SDS011;7202;50.718;7.072;2023-03-14T14:54:13;5.80;;;1.92;;
14235;SDS011;7202;50.718;7.072;2023-03-14T14:56:49;10.32;;;2.33;;
14235;SDS011;7202;50.718;7.072;2023-03-14T14:59:23;10.73;;;2.60;;
14235;SDS011;7202;50.718;7.072;2023-03-14T15:01:56;10.23;;;1.90;;
14235;SDS011;7202;50.718;7.072;2023-03-14T15:04:27;5.55;;;2.30;;
14235;SDS011;7202;50.718;7.072;2023-03-14T15:06:58;9.38;;;2.28;;
14235;SDS011;7202;50.718;7.072;2023-03-14T15:09:26;8.63;;;2.20;;
14235;SDS011;7202;50.718;7.072;2023-03-14T15:11:56;8.57;;;2.00;;
14235;SDS011;7202;50.718;7.072;2023-03-14T15:14:25;5.47;;;1.70;;
14235;SDS011;7202;50.718;7.072;2023-03-14T15:16:53;4.55;;;1.60;;
14235;SDS011;7202;50.718;7.072;2023-03-14T15:19:23;7.38;;;1.92;;
14235;SDS011;7202;50.718;7.072;2023-03-14T15:21:53;6.10;;;1.77;;
14235;SDS011;7202;50.718;7.072;2023-03-14T15:24:22;6.28;;;1.48;;
14235;SDS011;7202;50.718;7.072;2023-03-14T15:26:51;7.72;;;1.95;;
14235;SDS011;7202;50.718;7.072;2023-03-14T15:29:21;8.20;;;1.92;;
14235;SDS011;7202;50.718;7.072;2023-03-14T15:31:49;7.00;;;2.25;;
14235;SDS011;7202;50.718;7.072;2023-03-14T15:34:18;8.60;;;1.73;;
14235;SDS011;7202;50.718;7.072;2023-03-14T15:36:47;5.68;;;1.63;;
14235;SDS011;7202;50.718;7.072;2023-03-14T15:39:15;6.28;;;1.67;;
14235;SDS011;7202;50.718;7.072;2023-03-14T15:41:44;5.47;;;1.67;;
14235;SDS011;7202;50.718;7.072;2023-03-14T15:44:13;5.80;;;1.40;;
14235;SDS011;7202;50.718;7.072;2023-03-14T15:46:43;3.72;;;1.70;;
14235;SDS011;7202;50.718;7.072;2023-03-14T15:49:12;5.45;;;1.50;;
14235;SDS011;7202;50.718;7.072;2023-03-14T15:51:40;5.88;;;1.55;;
14235;SDS011;7202;50.718;7.072;2023-03-14T15:54:09;3.85;;;1.35;;
14235;SDS011;7202;50.718;7.072;2023-03-14T15:56:37;5.28;;;1.77;;